Time;durP1;ratioP1;P1;durP2;ratioP2;P2;SDS_P1;SDS_P2;PMS_P1;PMS_P2;Temp;Humidity;BMP_temperature;BMP_pressure;BME280_temperature;BME280_humidity;BME280_pressure;Samples;Min_cycle;Max_cycle;Signal;HPM_P1;HPM_P2
2024/01/09 00:02:20;;;;;;;12.73;2.35;;;;;;;;;;5040386;28;20052;-73
2024/01/09 00:04:51;;;;;;;7.07;1.95;;;;;;;;;;5040866;28;20531;-73
2024/01/09 00:07:20;;;;;;;5.78;1.60;;;;;;;;;;5040191;28;20051;-73
2024/01/09 00:09:54;;;;;;;6.65;2.00;;;;;;;;;;5040570;28;20052;-73
2024/01/09 00:12:25;;;;;;;6.55;1.90;;;;;;;;;;5041113;28;20398;-74
2024/01/09 00:14:55;;;;;;;17.17;3.10;;;;;;;;;;5040742;28;20048;-73
2024/01/09 00:17:25;;;;;;;14.15;2.80;;;;;;;;;;5041421;28;20059;-73
2024/01/09 00:19:57;;;;;;;13.35;2.00;;;;;;;;;;5039412;28;20053;-73
2024/01/09 00:22:29;;;;;;;9.13;2.40;;;;;;;;;;5041057;28;20515;-73
2024/01/09 00:24:59;;;;;;;4.68;1.55;;;;;;;;;;5041111;28;20496;-73
2024/01/09 00:27:29;;;;;;;9.15;2.55;;;;;;;;;;5041399;28;20049;-74
2024/01/09 00:30:00;;;;;;;7.13;1.92;;;;;;;;;;5041265;28;20044;-73
2024/01/09 00:32:31;;;;;;;4.55;1.92;;;;;;;;;;5039955;28;20052;-75
2024/01/09 00:35:02;;;;;;;7.57;1.63;;;;;;;;;;5039654;28;20053;-73
2024/01/09 00:37:33;;;;;;;9.00;1.92;;;;;;;;;;5040134;28;20830;-73
2024/01/09 00:40:04;;;;;;;6.80;1.65;;;;;;;;;;5038604;28;20048;-72
2024/01/09 00:42:34;;;;;;;11.18;2.63;;;;;;;;;;5038658;28;20049;-72
2024/01/09 00:45:07;;;;;;;7.88;2.33;;;;;;;;;;5040666;28;20053;-72
2024/01/09 00:47:40;;;;;;;7.47;2.60;;;;;;;;;;5039989;28;20603;-72
2024/01/09 00:50:11;;;;;;;5.68;2.40;;;;;;;;;;5041242;28;20055;-72
2024/01/09 00:52:41;;;;;;;10.85;2.67;;;;;;;;;;5040249;28;20523;-72
2024/01/09 00:55:12;;;;;;;8.40;2.40;;;;;;;;;;5040922;28;20056;-72
2024/01/09 00:57:43;;;;;;;11.23;2.88;;;;;;;;;;5040418;28;20060;-73
2024/01/09 01:00:14;;;;;;;7.25;2.40;;;;;;;;;;5040144;28;20049;-73
2024/01/09 01:02:44;;;;;;;8.75;2.65;;;;;;;;;;5039853;28;20044;-76
2024/01/09 01:05:17;;;;;;;9.93;2.80;;;;;;;;;;5039876;28;20535;-73
2024/01/09 01:07:48;;;;;;;7.20;2.75;;;;;;;;;;5040588;28;20055;-72
2024/01/09 01:10:18;;;;;;;10.68;2.97;;;;;;;;;;5039901;28;20084;-73
2024/01/09 01:12:49;;;;;;;5.47;2.42;;;;;;;;;;5039954;28;20045;-73
2024/01/09 01:15:19;;;;;;;8.93;2.42;;;;;;;;;;5039317;28;20045;-73
2024/01/09 01:17:50;;;;;;;8.65;2.67;;;;;;;;;;5037744;28;20500;-73
2024/01/09 01:20:21;;;;;;;7.13;2.38;;;;;;;;;;5038176;28;20059;-73
2024/01/09 01:22:51;;;;;;;7.43;2.53;;;;;;;;;;5039411;28;20504;-73
2024/01/09 01:25:22;;;;;;;4.28;2.03;;;;;;;;;;5040007;28;20049;-72
2024/01/09 01:27:53;;;;;;;6.97;2.55;;;;;;;;;;5039058;28;20602;-72
2024/01/09 01:30:24;;;;;;;10.40;2.30;;;;;;;;;;5039616;28;20393;-73
2024/01/09 01:32:55;;;;;;;5.43;1.95;;;;;;;;;;5039156;28;20531;-72
2024/01/09 01:35:28;;;;;;;7.05;2.42;;;;;;;;;;5039500;28;20048;-73
2024/01/09 01:38:00;;;;;;;8.18;2.28;;;;;;;;;;5039395;28;20527;-73
2024/01/09 01:40:31;;;;;;;4.65;2.08;;;;;;;;;;5038662;28;20083;-73
2024/01/09 01:43:01;;;;;;;5.97;2.08;;;;;;;;;;5039522;28;20037;-73
2024/01/09 01:45:31;;;;;;;5.97;1.88;;;;;;;;;;5039256;28;20415;-73
2024/01/09 01:48:02;;;;;;;7.95;2.67;;;;;;;;;;5039637;28;20041;-73
2024/01/09 01:50:36;;;;;;;6.57;2.15;;;;;;;;;;5038796;28;20052;-73
2024/01/09 01:53:08;;;;;;;7.47;2.20;;;;;;;;;;5038833;28;20056;-72
2024/01/09 01:55:39;;;;;;;5.32;2.33;;;;;;;;;;5038368;28;20397;-73
2024/01/09 01:58:09;;;;;;;9.88;2.60;;;;;;;;;;5039211;28;20048;-73
2024/01/09 02:00:42;;;;;;;6.63;2.20;;;;;;;;;;5038783;28;20045;-74
2024/01/09 02:03:14;;;;;;;5.43;1.90;;;;;;;;;;5039607;28;20044;-73
2024/01/09 02:05:46;;;;;;;8.98;2.35;;;;;;;;;;5039043;28;20049;-73
2024/01/09 02:08:20;;;;;;;10.20;2.40;;;;;;;;;;5039114;28;20041;-73
2024/01/09 02:10:51;;;;;;;6.60;1.98;;;;;;;;;;5037452;28;20503;-73
2024/01/09 02:13:21;;;;;;;7.15;2.30;;;;;;;;;;5038938;28;20060;-73
2024/01/09 02:15:52;;;;;;;7.18;2.38;;;;;;;;;;5039302;28;20064;-73
2024/01/09 02:18:22;;;;;;;6.38;2.40;;;;;;;;;;5039212;28;20037;-74
2024/01/09 02:20:54;;;;;;;7.28;2.45;;;;;;;;;;5038691;28;20049;-74
2024/01/09 02:23:25;;;;;;;3.83;2.15;;;;;;;;;;5038920;28;20558;-73
2024/01/09 02:25:56;;;;;;;8.05;2.30;;;;;;;;;;5039510;28;20527;-73
2024/01/09 02:28:47;;;;;;;9.55;2.33;;;;;;;;;;5039684;28;20056;-74
2024/01/09 02:31:18;;;;;;;12.63;2.25;;;;;;;;;;5042397;28;20811;-73
2024/01/09 02:33:49;;;;;;;7.18;1.83;;;;;;;;;;5043225;28;20048;-73
2024/01/09 02:36:21;;;;;;;5.35;1.80;;;;;;;;;;5042371;28;20045;-73
2024/01/09 02:38:51;;;;;;;5.35;1.77;;;;;;;;;;5042411;28;20053;-73
2024/01/09 02:41:22;;;;;;;10.13;2.15;;;;;;;;;;5041140;28;20041;-73
2024/01/09 02:43:54;;;;;;;6.15;1.92;;;;;;;;;;5042509;28;20393;-73
2024/01/09 02:46:25;;;;;;;5.72;1.60;;;;;;;;;;5042121;28;20060;-73
2024/01/09 02:48:55;;;;;;;7.78;2.05;;;;;;;;;;5042367;28;20041;-74
2024/01/09 02:51:26;;;;;;;8.35;2.20;;;;;;;;;;5041521;28;20865;-73
2024/01/09 02:53:57;;;;;;;7.47;1.92;;;;;;;;;;5042951;28;20053;-73
2024/01/09 02:56:27;;;;;;;6.55;2.15;;;;;;;;;;5042445;28;20419;-73
2024/01/09 02:58:59;;;;;;;4.85;1.70;;;;;;;;;;5042268;28;20436;-73
2024/01/09 03:01:29;;;;;;;6.38;1.85;;;;;;;;;;5042409;28;20620;-73
2024/01/09 03:04:01;;;;;;;8.05;2.17;;;;;;;;;;5042547;28;20041;-73
2024/01/09 03:06:32;;;;;;;6.07;1.85;;;;;;;;;;5042457;28;20047;-73
2024/01/09 03:09:03;;;;;;;7.60;1.98;;;;;;;;;;5041488;28;20511;-73
2024/01/09 03:11:34;;;;;;;5.45;1.88;;;;;;;;;;5041977;28;20045;-74
2024/01/09 03:14:07;;;;;;;7.53;2.00;;;;;;;;;;5041660;28;20056;-73
2024/01/09 03:16:37;;;;;;;3.15;1.60;;;;;;;;;;5042017;28;20049;-73
2024/01/09 03:19:07;;;;;;;3.20;1.70;;;;;;;;;;5041797;28;20049;-73
2024/01/09 03:21:38;;;;;;;5.75;1.67;;;;;;;;;;5041795;28;20048;-73
2024/01/09 03:24:09;;;;;;;3.85;1.90;;;;;;;;;;5042733;28;20052;-73
2024/01/09 03:26:40;;;;;;;4.38;1.80;;;;;;;;;;5041292;28;20053;-74
2024/01/09 03:29:10;;;;;;;7.35;1.90;;;;;;;;;;5041805;28;20052;-73
2024/01/09 03:31:40;;;;;;;7.60;2.10;;;;;;;;;;5041803;28;20401;-73
2024/01/09 03:34:11;;;;;;;4.20;1.75;;;;;;;;;;5041676;28;20821;-73
2024/01/09 03:36:47;;;;;;;4.00;1.90;;;;;;;;;;5041685;28;20551;-73
2024/01/09 03:39:18;;;;;;;6.30;1.63;;;;;;;;;;5041474;28;20528;-73
2024/01/09 03:41:48;;;;;;;5.20;2.22;;;;;;;;;;5039068;28;20049;-73
2024/01/09 03:44:19;;;;;;;6.57;2.20;;;;;;;;;;5041520;28;20060;-74
2024/01/09 03:46:50;;;;;;;7.72;1.75;;;;;;;;;;5041175;28;20053;-73
2024/01/09 03:49:20;;;;;;;9.65;2.63;;;;;;;;;;5041827;28;20049;-73
2024/01/09 03:51:51;;;;;;;9.75;2.45;;;;;;;;;;5041346;28;20045;-73
2024/01/09 03:54:21;;;;;;;11.18;2.90;;;;;;;;;;5043743;28;20048;-73
2024/01/09 03:56:52;;;;;;;8.88;2.30;;;;;;;;;;5044248;28;20051;-73
2024/01/09 03:59:23;;;;;;;4.15;2.03;;;;;;;;;;5044305;28;20412;-73
2024/01/09 04:01:53;;;;;;;7.35;2.53;;;;;;;;;;5043826;28;20060;-73
2024/01/09 04:04:24;;;;;;;9.00;1.88;;;;;;;;;;5043486;28;20049;-73
2024/01/09 04:06:57;;;;;;;4.93;1.90;;;;;;;;;;5043592;28;20052;-73
2024/01/09 04:09:29;;;;;;;9.13;1.83;;;;;;;;;;5042980;28;20052;-73
2024/01/09 04:11:59;;;;;;;4.00;1.95;;;;;;;;;;5044213;28;20130;-73
2024/01/09 04:14:29;;;;;;;11.20;3.55;;;;;;;;;;5042463;28;20056;-73
2024/01/09 04:17:02;;;;;;;12.45;2.85;;;;;;;;;;5043550;28;20045;-73
2024/01/09 04:19:32;;;;;;;7.72;3.00;;;;;;;;;;5043338;28;20040;-73
2024/01/09 04:22:04;;;;;;;6.32;2.40;;;;;;;;;;5043588;28;20052;-73
2024/01/09 04:24:35;;;;;;;10.27;2.50;;;;;;;;;;5043990;28;20041;-73
2024/01/09 04:27:07;;;;;;;9.48;2.58;;;;;;;;;;5045568;28;20047;-73
2024/01/09 04:29:37;;;;;;;3.58;2.05;;;;;;;;;;5043263;28;20045;-73
2024/01/09 04:32:08;;;;;;;5.47;1.80;;;;;;;;;;5042928;28;20051;-73
2024/01/09 04:34:38;;;;;;;8.32;2.50;;;;;;;;;;5043541;28;20045;-73
2024/01/09 04:37:08;;;;;;;7.72;2.22;;;;;;;;;;5043222;28;20432;-73
2024/01/09 04:39:39;;;;;;;8.20;2.30;;;;;;;;;;5043059;28;20049;-73
2024/01/09 04:42:11;;;;;;;5.60;2.38;;;;;;;;;;5042896;28;20060;-73
2024/01/09 04:44:41;;;;;;;7.93;1.98;;;;;;;;;;5041598;28;20048;-73
2024/01/09 04:47:15;;;;;;;6.10;2.30;;;;;;;;;;5043129;28;20060;-73
2024/01/09 04:49:46;;;;;;;8.15;2.20;;;;;;;;;;5042704;28;20056;-73
2024/01/09 04:52:17;;;;;;;7.90;2.20;;;;;;;;;;5042473;28;20075;-73
2024/01/09 04:54:52;;;;;;;6.82;2.17;;;;;;;;;;5043735;28;20425;-73
2024/01/09 04:57:22;;;;;;;6.38;2.30;;;;;;;;;;5043119;28;20559;-73
2024/01/09 04:59:53;;;;;;;6.18;1.90;;;;;;;;;;5043276;28;20059;-73
2024/01/09 05:02:24;;;;;;;3.67;2.08;;;;;;;;;;5042574;28;20049;-73
2024/01/09 05:04:56;;;;;;;5.90;2.30;;;;;;;;;;5043128;28;20045;-72
2024/01/09 05:07:26;;;;;;;5.85;2.40;;;;;;;;;;5042874;28;20507;-73
2024/01/09 05:09:56;;;;;;;9.30;2.33;;;;;;;;;;5042499;28;20048;-72
2024/01/09 05:12:27;;;;;;;7.28;2.28;;;;;;;;;;5041578;28;20057;-73
2024/01/09 05:14:58;;;;;;;6.65;2.28;;;;;;;;;;5042808;28;20612;-73
2024/01/09 05:17:28;;;;;;;8.50;2.35;;;;;;;;;;5042714;28;20056;-73
2024/01/09 05:19:59;;;;;;;6.53;2.33;;;;;;;;;;5042115;28;20044;-73
2024/01/09 05:22:30;;;;;;;6.88;2.60;;;;;;;;;;5041388;28;20052;-73
2024/01/09 05:25:01;;;;;;;5.78;2.33;;;;;;;;;;5042617;28;20036;-73
2024/01/09 05:27:31;;;;;;;8.45;2.30;;;;;;;;;;5042444;28;20068;-73
2024/01/09 05:30:02;;;;;;;5.20;2.17;;;;;;;;;;5042222;28;20546;-73
2024/01/09 05:32:33;;;;;;;6.95;3.10;;;;;;;;;;5042842;28;20077;-73
2024/01/09 05:35:05;;;;;;;8.65;2.40;;;;;;;;;;5042293;28;20060;-73
2024/01/09 05:37:35;;;;;;;5.68;2.10;;;;;;;;;;5042234;28;20060;-73
2024/01/09 05:40:06;;;;;;;5.82;2.17;;;;;;;;;;5042066;28;20071;-73
2024/01/09 05:42:37;;;;;;;4.15;1.88;;;;;;;;;;5042301;28;20056;-73
2024/01/09 05:45:09;;;;;;;4.43;2.03;;;;;;;;;;5041962;28;20056;-73
2024/01/09 05:47:41;;;;;;;4.85;1.90;;;;;;;;;;5042411;28;20053;-73
2024/01/09 05:50:16;;;;;;;11.75;2.22;;;;;;;;;;5042199;28;20836;-73
2024/01/09 05:52:50;;;;;;;6.60;2.10;;;;;;;;;;5041670;28;20056;-73
2024/01/09 05:55:21;;;;;;;7.75;2.13;;;;;;;;;;5041826;28;21052;-73
2024/01/09 05:57:50;;;;;;;4.25;1.95;;;;;;;;;;5042045;28;20080;-73
2024/01/09 06:00:21;;;;;;;4.22;2.00;;;;;;;;;;5041959;28;20586;-73
2024/01/09 06:02:51;;;;;;;9.23;2.95;;;;;;;;;;5041424;28;20420;-73
2024/01/09 06:05:22;;;;;;;6.03;2.08;;;;;;;;;;5043186;28;20060;-73
2024/01/09 06:07:52;;;;;;;8.63;2.30;;;;;;;;;;5045713;28;20056;-73
2024/01/09 06:10:23;;;;;;;8.15;2.45;;;;;;;;;;5046749;28;20407;-73
2024/01/09 06:12:53;;;;;;;9.57;2.67;;;;;;;;;;5045703;28;20073;-73
2024/01/09 06:15:23;;;;;;;7.32;2.97;;;;;;;;;;5045683;28;20053;-73
2024/01/09 06:17:54;;;;;;;5.57;1.90;;;;;;;;;;5044933;28;20929;-73
2024/01/09 06:20:24;;;;;;;10.65;2.10;;;;;;;;;;5047432;28;20049;-73
2024/01/09 06:22:55;;;;;;;6.18;2.13;;;;;;;;;;5044775;28;20045;-73
2024/01/09 06:25:25;;;;;;;4.57;2.15;;;;;;;;;;5045419;28;20055;-73
2024/01/09 06:27:56;;;;;;;4.72;1.88;;;;;;;;;;5045148;28;20053;-73
2024/01/09 06:30:26;;;;;;;7.93;2.22;;;;;;;;;;5045348;28;20049;-73
2024/01/09 06:32:56;;;;;;;6.30;2.08;;;;;;;;;;5045129;28;20049;-74
2024/01/09 06:35:28;;;;;;;6.38;1.90;;;;;;;;;;5045620;28;20048;-73
2024/01/09 06:37:59;;;;;;;7.57;2.10;;;;;;;;;;5045202;28;20111;-73
2024/01/09 06:40:29;;;;;;;5.32;2.10;;;;;;;;;;5045215;28;20064;-73
2024/01/09 06:42:59;;;;;;;6.45;2.15;;;;;;;;;;5044719;28;20060;-73
2024/01/09 06:45:30;;;;;;;5.78;2.05;;;;;;;;;;5045525;28;20052;-72
2024/01/09 06:48:02;;;;;;;4.20;2.20;;;;;;;;;;5045709;28;20048;-73
2024/01/09 06:50:32;;;;;;;6.25;2.05;;;;;;;;;;5045854;28;20048;-73
2024/01/09 06:53:06;;;;;;;5.07;1.70;;;;;;;;;;5045274;28;20496;-73
2024/01/09 06:55:37;;;;;;;5.45;2.38;;;;;;;;;;5045241;28;20044;-73
2024/01/09 06:58:07;;;;;;;6.15;2.13;;;;;;;;;;5045245;28;20519;-73
2024/01/09 07:00:39;;;;;;;8.43;1.98;;;;;;;;;;5044806;28;20040;-73
2024/01/09 07:03:10;;;;;;;6.13;2.05;;;;;;;;;;5045057;28;20559;-73
2024/01/09 07:05:40;;;;;;;3.70;1.77;;;;;;;;;;5043632;28;20056;-72
2024/01/09 07:08:11;;;;;;;5.30;2.00;;;;;;;;;;5045377;28;20051;-73
2024/01/09 07:10:42;;;;;;;5.97;1.70;;;;;;;;;;5045189;28;20056;-73
2024/01/09 07:13:12;;;;;;;6.97;1.98;;;;;;;;;;5043635;28;20056;-73
2024/01/09 07:15:42;;;;;;;5.78;2.20;;;;;;;;;;5043259;28;20044;-73
2024/01/09 07:18:13;;;;;;;5.10;1.85;;;;;;;;;;5044700;28;20076;-73
2024/01/09 07:20:45;;;;;;;5.18;2.13;;;;;;;;;;5044858;28;20053;-73
2024/01/09 07:23:17;;;;;;;5.20;2.38;;;;;;;;;;5044252;28;20424;-72
2024/01/09 07:25:49;;;;;;;12.35;3.88;;;;;;;;;;5044538;28;20089;-73
2024/01/09 07:28:19;;;;;;;18.65;5.65;;;;;;;;;;5044716;28;20460;-73
2024/01/09 07:30:52;;;;;;;24.13;6.18;;;;;;;;;;5044252;28;20045;-73
2024/01/09 07:33:23;;;;;;;13.45;4.53;;;;;;;;;;5044051;28;20064;-73
2024/01/09 07:35:53;;;;;;;11.80;3.00;;;;;;;;;;5044639;28;20045;-73
2024/01/09 07:38:24;;;;;;;12.55;4.32;;;;;;;;;;5044711;28;20049;-73
2024/01/09 07:40:55;;;;;;;8.40;3.00;;;;;;;;;;5044591;28;20496;-73
2024/01/09 07:43:29;;;;;;;7.93;3.22;;;;;;;;;;5044898;28;20048;-73
2024/01/09 07:46:00;;;;;;;13.13;4.00;;;;;;;;;;5044710;28;20048;-73
2024/01/09 07:48:31;;;;;;;14.35;3.53;;;;;;;;;;5044357;28;20049;-73
2024/01/09 07:51:02;;;;;;;8.48;2.92;;;;;;;;;;5043742;28;20056;-73
2024/01/09 07:53:34;;;;;;;9.65;3.30;;;;;;;;;;5043821;28;20059;-73
2024/01/09 07:56:14;;;;;;;8.85;3.53;;;;;;;;;;5044093;28;20048;-73
2024/01/09 07:58:45;;;;;;;7.03;2.97;;;;;;;;;;5043913;28;20056;-73
2024/01/09 08:01:18;;;;;;;8.45;3.00;;;;;;;;;;5043780;28;20048;-73
2024/01/09 08:03:49;;;;;;;9.95;2.88;;;;;;;;;;5044050;28;20059;-73
2024/01/09 08:06:20;;;;;;;7.50;2.50;;;;;;;;;;5043113;28;20041;-73
2024/01/09 08:08:50;;;;;;;7.97;3.05;;;;;;;;;;5043958;28;20057;-73
2024/01/09 08:11:22;;;;;;;14.55;3.00;;;;;;;;;;5044475;28;20056;-73
2024/01/09 08:13:52;;;;;;;10.02;2.72;;;;;;;;;;5043978;28;20657;-73
2024/01/09 08:16:22;;;;;;;10.13;3.00;;;;;;;;;;5043724;28;20049;-73
2024/01/09 08:18:52;;;;;;;7.18;2.60;;;;;;;;;;5043269;28;20045;-73
2024/01/09 08:21:23;;;;;;;4.22;2.88;;;;;;;;;;5043574;28;20451;-72
2024/01/09 08:23:54;;;;;;;8.77;3.55;;;;;;;;;;5043676;28;20511;-73
2024/01/09 08:26:25;;;;;;;10.23;2.75;;;;;;;;;;5043997;28;20492;-72
2024/01/09 08:28:56;;;;;;;6.43;2.65;;;;;;;;;;5042839;28;20053;-73
2024/01/09 08:31:26;;;;;;;4.35;2.40;;;;;;;;;;5043486;28;20044;-72
2024/01/09 08:33:57;;;;;;;6.45;2.80;;;;;;;;;;5043656;28;20408;-72
2024/01/09 08:36:28;;;;;;;8.63;2.72;;;;;;;;;;5042979;28;20682;-73
2024/01/09 08:38:59;;;;;;;5.22;2.65;;;;;;;;;;5043055;28;20049;-73
2024/01/09 08:41:29;;;;;;;7.47;2.67;;;;;;;;;;5043143;28;20059;-73
2024/01/09 08:44:00;;;;;;;5.30;2.60;;;;;;;;;;5042625;28;20037;-72
2024/01/09 08:46:32;;;;;;;8.13;2.50;;;;;;;;;;5043237;28;20045;-72
2024/01/09 08:49:02;;;;;;;6.63;2.35;;;;;;;;;;5042819;28;20052;-73
2024/01/09 08:51:32;;;;;;;9.32;2.55;;;;;;;;;;5042414;28;20672;-73
2024/01/09 08:54:05;;;;;;;4.15;2.22;;;;;;;;;;5039443;28;20496;-73
2024/01/09 08:56:36;;;;;;;8.70;3.22;;;;;;;;;;5039971;28;20420;-72
2024/01/09 08:59:10;;;;;;;11.88;2.65;;;;;;;;;;5039976;28;20049;-73
2024/01/09 09:01:41;;;;;;;6.90;2.70;;;;;;;;;;5040655;28;20514;-73
2024/01/09 09:04:12;;;;;;;10.27;2.85;;;;;;;;;;5041020;28;20055;-73
2024/01/09 09:06:44;;;;;;;13.63;3.40;;;;;;;;;;5041662;28;20045;-74
2024/01/09 09:09:15;;;;;;;6.15;2.58;;;;;;;;;;5041627;28;20496;-73
2024/01/09 09:11:47;;;;;;;6.80;2.60;;;;;;;;;;5042235;28;20056;-73
2024/01/09 09:14:18;;;;;;;7.18;3.08;;;;;;;;;;5040943;28;20055;-73
2024/01/09 09:16:51;;;;;;;10.40;2.95;;;;;;;;;;5042268;28;20036;-72
2024/01/09 09:19:22;;;;;;;12.45;3.72;;;;;;;;;;5042754;28;20060;-73
2024/01/09 09:21:53;;;;;;;8.75;3.10;;;;;;;;;;5042573;28;20049;-73
2024/01/09 09:24:25;;;;;;;11.05;3.42;;;;;;;;;;5042120;28;20052;-73
2024/01/09 09:26:55;;;;;;;10.25;3.30;;;;;;;;;;5041947;28;20052;-78
2024/01/09 09:29:26;;;;;;;9.13;2.88;;;;;;;;;;5042258;28;20048;-73
2024/01/09 09:32:07;;;;;;;9.63;2.90;;;;;;;;;;5042558;28;20045;-72
2024/01/09 09:34:41;;;;;;;5.47;2.38;;;;;;;;;;5042676;28;20051;-73
2024/01/09 09:37:15;;;;;;;6.47;2.58;;;;;;;;;;5043302;28;20526;-72
2024/01/09 09:39:46;;;;;;;7.70;3.10;;;;;;;;;;5042098;28;20059;-73
2024/01/09 09:42:16;;;;;;;10.48;2.35;;;;;;;;;;5042133;28;20052;-73
2024/01/09 09:44:53;;;;;;;9.93;2.33;;;;;;;;;;5042675;28;20055;-72
2024/01/09 09:47:25;;;;;;;7.53;2.90;;;;;;;;;;5043000;28;20060;-73
2024/01/09 09:49:57;;;;;;;8.13;2.50;;;;;;;;;;5041991;28;20049;-73
2024/01/09 09:52:30;;;;;;;6.43;2.38;;;;;;;;;;5042142;28;20052;-73
2024/01/09 09:55:01;;;;;;;8.00;2.53;;;;;;;;;;5042010;28;20077;-73
2024/01/09 09:57:32;;;;;;;10.60;2.58;;;;;;;;;;5041616;28;20049;-73
2024/01/09 10:00:09;;;;;;;3.95;2.20;;;;;;;;;;5041672;28;20418;-73
2024/01/09 10:02:51;;;;;;;3.75;2.00;;;;;;;;;;5041871;28;20063;-73
2024/01/09 10:05:23;;;;;;;5.53;2.13;;;;;;;;;;5042320;28;20112;-73
2024/01/09 10:07:56;;;;;;;7.80;2.92;;;;;;;;;;5041686;28;20037;-73
2024/01/09 10:10:27;;;;;;;8.25;3.15;;;;;;;;;;5041897;28;20044;-73
2024/01/09 10:12:58;;;;;;;4.88;2.03;;;;;;;;;;5041840;28;20522;-73
2024/01/09 10:15:29;;;;;;;11.23;2.10;;;;;;;;;;5041971;28;20033;-85
2024/01/09 10:18:01;;;;;;;12.90;2.42;;;;;;;;;;5041532;28;20049;-74
2024/01/09 10:20:31;;;;;;;5.55;2.10;;;;;;;;;;5041784;28;20533;-74
2024/01/09 10:23:01;;;;;;;7.90;1.98;;;;;;;;;;5041074;28;20065;-73
2024/01/09 10:25:32;;;;;;;6.22;1.73;;;;;;;;;;5041819;28;20392;-74
2024/01/09 10:28:08;;;;;;;9.48;1.75;;;;;;;;;;5042024;28;20411;-73
2024/01/09 10:30:40;;;;;;;9.35;1.88;;;;;;;;;;5041960;28;20500;-73
2024/01/09 10:33:12;;;;;;;5.65;2.15;;;;;;;;;;5041611;28;20057;-73
2024/01/09 10:35:43;;;;;;;6.93;1.90;;;;;;;;;;5041702;28;20495;-73
2024/01/09 10:38:15;;;;;;;10.18;1.90;;;;;;;;;;5041502;28;20048;-73
2024/01/09 10:40:46;;;;;;;3.53;1.67;;;;;;;;;;5041752;28;20064;-74
2024/01/09 10:43:17;;;;;;;6.93;1.83;;;;;;;;;;5041482;28;20052;-74
2024/01/09 10:45:48;;;;;;;7.53;1.98;;;;;;;;;;5040308;28;20041;-74
2024/01/09 10:48:21;;;;;;;3.67;1.50;;;;;;;;;;5041132;28;20049;-73
2024/01/09 10:50:56;;;;;;;5.07;1.95;;;;;;;;;;5043051;28;20053;-72
2024/01/09 10:53:28;;;;;;;8.75;1.77;;;;;;;;;;5045019;28;20041;-74
2024/01/09 10:56:01;;;;;;;4.82;1.73;;;;;;;;;;5045163;28;20060;-74
2024/01/09 10:58:33;;;;;;;6.03;2.10;;;;;;;;;;5044959;28;20048;-75
2024/01/09 11:01:04;;;;;;;3.78;1.83;;;;;;;;;;5045318;28;20041;-75
2024/01/09 11:03:35;;;;;;;6.38;1.63;;;;;;;;;;5044240;28;20058;-74
2024/01/09 11:06:07;;;;;;;5.82;1.23;;;;;;;;;;5043805;28;20060;-73
2024/01/09 11:08:39;;;;;;;10.48;1.63;;;;;;;;;;5045159;28;20447;-76
2024/01/09 11:11:15;;;;;;;4.50;1.60;;;;;;;;;;5044721;28;20044;-73
2024/01/09 11:13:47;;;;;;;6.60;1.67;;;;;;;;;;5044815;28;20056;-74
2024/01/09 11:16:19;;;;;;;9.88;2.00;;;;;;;;;;5045161;28;20048;-72
2024/01/09 11:18:52;;;;;;;4.32;1.80;;;;;;;;;;5042917;28;20048;-76
2024/01/09 11:21:27;;;;;;;6.55;1.75;;;;;;;;;;5044579;28;20053;-73
2024/01/09 11:24:00;;;;;;;11.20;2.00;;;;;;;;;;5044257;28;20040;-73
2024/01/09 11:26:38;;;;;;;7.13;2.05;;;;;;;;;;5044919;28;20033;-74
2024/01/09 11:29:13;;;;;;;6.95;1.75;;;;;;;;;;5045189;28;20045;-73
2024/01/09 11:31:47;;;;;;;9.27;1.70;;;;;;;;;;5044782;28;20508;-74
2024/01/09 11:34:27;;;;;;;8.73;1.77;;;;;;;;;;5043687;28;20060;-80
2024/01/09 11:36:57;;;;;;;5.32;1.80;;;;;;;;;;5044908;28;20049;-74
2024/01/09 11:39:29;;;;;;;9.30;2.05;;;;;;;;;;5044282;28;20053;-76
2024/01/09 11:42:01;;;;;;;6.70;1.70;;;;;;;;;;5044773;28;20041;-74
2024/01/09 11:44:32;;;;;;;5.57;1.95;;;;;;;;;;5043816;28;20415;-72
2024/01/09 11:47:02;;;;;;;6.40;2.10;;;;;;;;;;5044097;28;20056;-73
2024/01/09 11:49:34;;;;;;;5.90;1.83;;;;;;;;;;5044081;28;20511;-74
2024/01/09 11:52:05;;;;;;;8.15;1.88;;;;;;;;;;5044355;28;20045;-74
2024/01/09 11:54:37;;;;;;;5.43;1.98;;;;;;;;;;5042539;28;20056;-72
2024/01/09 11:57:10;;;;;;;6.88;2.03;;;;;;;;;;5044120;28;20056;-75
2024/01/09 11:59:41;;;;;;;8.32;1.73;;;;;;;;;;5044164;28;20517;-76
2024/01/09 12:02:13;;;;;;;6.28;1.77;;;;;;;;;;5043321;28;20041;-77
2024/01/09 12:04:45;;;;;;;7.18;1.88;;;;;;;;;;5043961;28;20053;-75
2024/01/09 12:07:15;;;;;;;6.75;1.95;;;;;;;;;;5043668;28;20055;-74
2024/01/09 12:09:50;;;;;;;1.73;1.52;;;;;;;;;;5043318;28;20598;-72
2024/01/09 12:12:25;;;;;;;4.30;1.70;;;;;;;;;;5043846;28;20408;-73
2024/01/09 12:14:56;;;;;;;6.18;2.13;;;;;;;;;;5044398;28;20045;-74
2024/01/09 12:17:33;;;;;;;6.30;1.80;;;;;;;;;;5044053;28;20049;-73
2024/01/09 12:20:10;;;;;;;6.32;2.05;;;;;;;;;;5044315;28;20041;-72
2024/01/09 12:22:40;;;;;;;4.63;1.90;;;;;;;;;;5042875;28;20523;-75
2024/01/09 12:25:10;;;;;;;3.60;1.67;;;;;;;;;;5043719;28;20095;-74
2024/01/09 12:27:42;;;;;;;4.47;1.77;;;;;;;;;;5043515;28;20060;-74
2024/01/09 12:30:14;;;;;;;5.07;1.75;;;;;;;;;;5043239;28;20500;-74
2024/01/09 12:32:45;;;;;;;7.38;1.80;;;;;;;;;;5043332;28;20044;-72
2024/01/09 12:35:16;;;;;;;5.18;1.83;;;;;;;;;;5043245;28;20492;-75
2024/01/09 12:37:47;;;;;;;5.18;1.88;;;;;;;;;;5043634;28;20396;-74
2024/01/09 12:40:19;;;;;;;4.72;1.90;;;;;;;;;;5043061;28;20424;-77
2024/01/09 12:43:12;;;;;;;5.70;2.15;;;;;;;;;;5042776;28;20512;-77
2024/01/09 12:45:43;;;;;;;3.92;1.35;;;;;;;;;;5042740;28;20056;-73
2024/01/09 12:48:14;;;;;;;7.22;1.77;;;;;;;;;;5043799;28;20067;-74
2024/01/09 12:50:59;;;;;;;2.50;1.48;;;;;;;;;;5041958;28;20602;-74
2024/01/09 12:53:34;;;;;;;4.75;1.90;;;;;;;;;;5042471;28;20053;-74
2024/01/09 12:56:09;;;;;;;4.60;1.67;;;;;;;;;;5042190;28;20053;-74
2024/01/09 12:58:45;;;;;;;4.63;1.50;;;;;;;;;;5042609;28;20052;-73
2024/01/09 13:01:17;;;;;;;4.13;1.50;;;;;;;;;;5043070;28;20064;-76
2024/01/09 13:03:50;;;;;;;4.03;1.40;;;;;;;;;;5042604;28;20887;-73
2024/01/09 13:06:21;;;;;;;6.43;1.63;;;;;;;;;;5042258;28;20408;-75
2024/01/09 13:08:52;;;;;;;3.45;1.35;;;;;;;;;;5042721;28;20045;-79
2024/01/09 13:11:24;;;;;;;7.20;1.65;;;;;;;;;;5042670;28;20499;-76
2024/01/09 13:13:54;;;;;;;3.00;1.40;;;;;;;;;;5041905;28;20049;-76
2024/01/09 13:16:24;;;;;;;4.95;1.40;;;;;;;;;;5042140;28;20052;-76
2024/01/09 13:18:55;;;;;;;9.93;1.60;;;;;;;;;;5041588;28;20060;-76
2024/01/09 13:21:26;;;;;;;3.35;1.25;;;;;;;;;;5042761;28;20064;-75
2024/01/09 13:23:56;;;;;;;7.57;1.80;;;;;;;;;;5043385;28;20072;-76
2024/01/09 13:26:33;;;;;;;2.70;1.52;;;;;;;;;;5042477;28;20052;-75
2024/01/09 13:29:04;;;;;;;4.43;1.48;;;;;;;;;;5041480;28;20566;-74
2024/01/09 13:31:55;;;;;;;2.67;1.23;;;;;;;;;;5041726;28;20069;-76
2024/01/09 13:34:25;;;;;;;4.93;1.30;;;;;;;;;;5042411;28;20045;-76
2024/01/09 13:36:56;;;;;;;7.13;1.50;;;;;;;;;;5041559;28;20049;-77
2024/01/09 13:39:28;;;;;;;5.85;1.60;;;;;;;;;;5042129;28;20882;-76
2024/01/09 13:41:59;;;;;;;4.70;1.60;;;;;;;;;;5042486;28;20040;-77
2024/01/09 13:44:29;;;;;;;3.97;1.52;;;;;;;;;;5042245;28;20060;-75
2024/01/09 13:46:59;;;;;;;7.88;1.55;;;;;;;;;;5041881;28;20052;-76
2024/01/09 13:49:30;;;;;;;5.25;1.42;;;;;;;;;;5041764;28;20625;-73
2024/01/09 13:52:01;;;;;;;12.27;1.38;;;;;;;;;;5042359;28;20048;-75
2024/01/09 13:54:31;;;;;;;3.10;1.40;;;;;;;;;;5040761;28;20076;-77
2024/01/09 13:57:01;;;;;;;7.65;4.35;;;;;;;;;;5042075;28;20068;-73
2024/01/09 13:59:32;;;;;;;3.95;1.80;;;;;;;;;;5042289;28;20049;-75
2024/01/09 14:02:04;;;;;;;3.65;1.50;;;;;;;;;;5042322;28;20045;-75
2024/01/09 14:04:34;;;;;;;3.97;1.60;;;;;;;;;;5041847;28;20700;-75
2024/01/09 14:07:09;;;;;;;2.97;1.50;;;;;;;;;;5042386;28;20060;-75
2024/01/09 14:09:39;;;;;;;5.07;1.60;;;;;;;;;;5042582;28;20045;-74
2024/01/09 14:12:10;;;;;;;4.75;1.83;;;;;;;;;;5041994;28;20052;-78
2024/01/09 14:14:41;;;;;;;2.90;1.33;;;;;;;;;;5041796;28;20519;-76
2024/01/09 14:17:12;;;;;;;5.38;2.40;;;;;;;;;;5040953;28;20504;-76
2024/01/09 14:19:42;;;;;;;3.20;1.50;;;;;;;;;;5041974;28;20512;-78
2024/01/09 14:22:14;;;;;;;4.13;1.70;;;;;;;;;;5041957;28;20060;-76
2024/01/09 14:24:44;;;;;;;4.60;1.65;;;;;;;;;;5041057;28;20381;-75
2024/01/09 14:27:15;;;;;;;6.47;1.70;;;;;;;;;;5045513;28;20484;-77
2024/01/09 14:29:49;;;;;;;4.75;2.22;;;;;;;;;;5044030;28;20111;-76
2024/01/09 14:32:21;;;;;;;4.45;1.33;;;;;;;;;;5044188;28;20045;-75
2024/01/09 14:34:52;;;;;;;3.53;1.50;;;;;;;;;;5044855;28;20534;-75
2024/01/09 14:37:23;;;;;;;4.30;1.50;;;;;;;;;;5045031;28;20044;-76
2024/01/09 14:39:53;;;;;;;4.82;2.20;;;;;;;;;;5044909;28;20060;-75
2024/01/09 14:42:24;;;;;;;6.05;1.77;;;;;;;;;;5044813;28;20049;-75
2024/01/09 14:44:55;;;;;;;3.85;1.50;;;;;;;;;;5045661;28;20064;-75
2024/01/09 14:47:25;;;;;;;6.22;1.80;;;;;;;;;;5046438;28;20527;-74
2024/01/09 14:49:56;;;;;;;3.53;1.45;;;;;;;;;;5044907;28;20488;-74
2024/01/09 14:52:27;;;;;;;6.00;1.75;;;;;;;;;;5045441;28;20053;-76
2024/01/09 14:54:58;;;;;;;5.32;1.75;;;;;;;;;;5045082;28;20044;-75
2024/01/09 14:57:27;;;;;;;6.03;1.70;;;;;;;;;;5045123;28;20059;-74
2024/01/09 14:59:59;;;;;;;5.22;2.00;;;;;;;;;;5044952;28;20393;-73
2024/01/09 15:02:30;;;;;;;5.90;1.90;;;;;;;;;;5045394;28;20527;-73
2024/01/09 15:05:00;;;;;;;5.57;1.70;;;;;;;;;;5044929;28;20516;-76
2024/01/09 15:07:31;;;;;;;4.18;1.92;;;;;;;;;;5045240;28;20052;-74